sensor_id;sensor_type;location;lat;lon;timestamp;temperature;humidity
61912;DHT22;49973;52.084;5.412;2023-07-20T00:00:46;16.80;99.90
61912;DHT22;49973;52.084;5.412;2023-07-20T00:03:15;16.80;99.90
61912;DHT22;49973;52.084;5.412;2023-07-20T00:05:46;16.70;99.90
61912;DHT22;49973;52.084;5.412;2023-07-20T00:08:15;16.70;99.90
61912;DHT22;49973;52.084;5.412;2023-07-20T00:10:46;16.70;99.90
61912;DHT22;49973;52.084;5.412;2023-07-20T00:13:14;16.70;99.90
61912;DHT22;49973;52.084;5.412;2023-07-20T00:15:46;16.70;99.90
61912;DHT22;49973;52.084;5.412;2023-07-20T00:18:14;16.70;99.90
61912;DHT22;49973;52.084;5.412;2023-07-20T00:20:43;16.70;99.90
61912;DHT22;49973;52.084;5.412;2023-07-20T00:23:12;16.70;99.90
61912;DHT22;49973;52.084;5.412;2023-07-20T00:25:40;16.70;99.90
61912;DHT22;49973;52.084;5.412;2023-07-20T00:28:10;16.60;99.90
61912;DHT22;49973;52.084;5.412;2023-07-20T00:30:39;16.60;99.90
61912;DHT22;49973;52.084;5.412;2023-07-20T00:33:11;16.60;99.90
61912;DHT22;49973;52.084;5.412;2023-07-20T00:35:40;16.60;99.90
61912;DHT22;49973;52.084;5.412;2023-07-20T00:38:08;16.60;99.90
61912;DHT22;49973;52.084;5.412;2023-07-20T00:40:37;16.50;99.90
61912;DHT22;49973;52.084;5.412;2023-07-20T00:43:06;16.50;99.90
61912;DHT22;49973;52.084;5.412;2023-07-20T00:45:36;16.40;99.90
61912;DHT22;49973;52.084;5.412;2023-07-20T00:48:06;16.40;99.90
61912;DHT22;49973;52.084;5.412;2023-07-20T00:50:36;16.50;99.90
61912;DHT22;49973;52.084;5.412;2023-07-20T00:53:05;16.30;99.90
61912;DHT22;49973;52.084;5.412;2023-07-20T00:55:34;16.30;99.90
61912;DHT22;49973;52.084;5.412;2023-07-20T00:58:03;16.30;99.90
61912;DHT22;49973;52.084;5.412;2023-07-20T01:00:36;16.30;99.90
61912;DHT22;49973;52.084;5.412;2023-07-20T01:03:04;16.20;99.90
61912;DHT22;49973;52.084;5.412;2023-07-20T01:05:40;16.20;99.90
61912;DHT22;49973;52.084;5.412;2023-07-20T01:08:14;16.10;99.90
61912;DHT22;49973;52.084;5.412;2023-07-20T01:10:49;16.10;99.90
61912;DHT22;49973;52.084;5.412;2023-07-20T01:13:20;16.10;99.90
61912;DHT22;49973;52.084;5.412;2023-07-20T01:15:56;16.10;99.90
61912;DHT22;49973;52.084;5.412;2023-07-20T01:18:27;16.00;99.90
61912;DHT22;49973;52.084;5.412;2023-07-20T01:20:59;16.00;99.90
61912;DHT22;49973;52.084;5.412;2023-07-20T01:23:49;16.00;99.90
61912;DHT22;49973;52.084;5.412;2023-07-20T01:26:44;16.00;99.90
61912;DHT22;49973;52.084;5.412;2023-07-20T01:29:30;16.00;99.90
61912;DHT22;49973;52.084;5.412;2023-07-20T01:32:04;15.90;99.90
61912;DHT22;49973;52.084;5.412;2023-07-20T01:34:35;15.90;99.90
61912;DHT22;49973;52.084;5.412;2023-07-20T01:37:05;15.90;99.90
61912;DHT22;49973;52.084;5.412;2023-07-20T01:39:35;15.80;99.90
61912;DHT22;49973;52.084;5.412;2023-07-20T01:42:05;15.80;99.90
61912;DHT22;49973;52.084;5.412;2023-07-20T01:44:33;15.80;99.90
61912;DHT22;49973;52.084;5.412;2023-07-20T01:47:04;15.70;99.90
61912;DHT22;49973;52.084;5.412;2023-07-20T01:49:32;15.70;99.90
61912;DHT22;49973;52.084;5.412;2023-07-20T01:52:01;15.70;99.90
61912;DHT22;49973;52.084;5.412;2023-07-20T01:54:30;15.60;99.90
61912;DHT22;49973;52.084;5.412;2023-07-20T01:56:59;15.60;99.90
61912;DHT22;49973;52.084;5.412;2023-07-20T01:59:27;15.60;99.90
61912;DHT22;49973;52.084;5.412;2023-07-20T02:01:56;15.50;99.90
61912;DHT22;49973;52.084;5.412;2023-07-20T02:04:26;15.60;99.90
61912;DHT22;49973;52.084;5.412;2023-07-20T02:06:55;15.60;99.90
61912;DHT22;49973;52.084;5.412;2023-07-20T02:09:23;15.50;99.90
61912;DHT22;49973;52.084;5.412;2023-07-20T02:11:52;15.50;99.90
61912;DHT22;49973;52.084;5.412;2023-07-20T02:14:21;15.40;99.90
61912;DHT22;49973;52.084;5.412;2023-07-20T02:16:50;15.50;99.90
61912;DHT22;49973;52.084;5.412;2023-07-20T02:19:21;15.50;99.90
61912;DHT22;49973;52.084;5.412;2023-07-20T02:21:51;15.40;99.90
61912;DHT22;49973;52.084;5.412;2023-07-20T02:24:19;15.30;99.90
61912;DHT22;49973;52.084;5.412;2023-07-20T02:26:48;15.30;99.90
61912;DHT22;49973;52.084;5.412;2023-07-20T02:29:17;15.40;99.90
61912;DHT22;49973;52.084;5.412;2023-07-20T02:31:45;15.30;99.90
61912;DHT22;49973;52.084;5.412;2023-07-20T02:34:14;15.30;99.90
61912;DHT22;49973;52.084;5.412;2023-07-20T02:36:42;15.20;99.90
61912;DHT22;49973;52.084;5.412;2023-07-20T02:39:12;15.20;99.90
61912;DHT22;49973;52.084;5.412;2023-07-20T02:41:41;15.10;99.90
61912;DHT22;49973;52.084;5.412;2023-07-20T02:44:09;15.20;99.90
61912;DHT22;49973;52.084;5.412;2023-07-20T02:46:38;15.10;99.90
61912;DHT22;49973;52.084;5.412;2023-07-20T02:49:07;15.10;99.90
61912;DHT22;49973;52.084;5.412;2023-07-20T02:51:36;15.10;99.90
61912;DHT22;49973;52.084;5.412;2023-07-20T02:54:04;15.10;99.90
61912;DHT22;49973;52.084;5.412;2023-07-20T02:56:34;15.00;99.90
61912;DHT22;49973;52.084;5.412;2023-07-20T02:59:03;14.90;99.90
61912;DHT22;49973;52.084;5.412;2023-07-20T03:01:32;14.90;99.90
61912;DHT22;49973;52.084;5.412;2023-07-20T03:04:01;14.90;99.90
61912;DHT22;49973;52.084;5.412;2023-07-20T03:06:30;14.90;99.90
61912;DHT22;49973;52.084;5.412;2023-07-20T03:08:59;14.80;99.90
61912;DHT22;49973;52.084;5.412;2023-07-20T03:11:27;14.90;99.90
61912;DHT22;49973;52.084;5.412;2023-07-20T03:13:59;14.90;99.90
61912;DHT22;49973;52.084;5.412;2023-07-20T03:16:28;14.90;99.90
61912;DHT22;49973;52.084;5.412;2023-07-20T03:19:01;14.70;99.90
61912;DHT22;49973;52.084;5.412;2023-07-20T03:21:30;14.70;99.90
61912;DHT22;49973;52.084;5.412;2023-07-20T03:23:59;14.70;99.90
61912;DHT22;49973;52.084;5.412;2023-07-20T03:26:28;14.70;99.90
61912;DHT22;49973;52.084;5.412;2023-07-20T03:28:58;14.70;99.90
61912;DHT22;49973;52.084;5.412;2023-07-20T03:31:27;14.70;99.90
61912;DHT22;49973;52.084;5.412;2023-07-20T03:33:56;14.90;99.90
61912;DHT22;49973;52.084;5.412;2023-07-20T03:36:25;14.80;99.90
61912;DHT22;49973;52.084;5.412;2023-07-20T03:38:53;14.70;99.90
61912;DHT22;49973;52.084;5.412;2023-07-20T03:41:22;14.80;99.90
61912;DHT22;49973;52.084;5.412;2023-07-20T03:43:51;14.60;99.90
61912;DHT22;49973;52.084;5.412;2023-07-20T03:46:21;14.70;99.90
61912;DHT22;49973;52.084;5.412;2023-07-20T03:48:50;14.60;99.90
61912;DHT22;49973;52.084;5.412;2023-07-20T03:51:18;14.60;99.90
61912;DHT22;49973;52.084;5.412;2023-07-20T03:53:47;14.60;99.90
61912;DHT22;49973;52.084;5.412;2023-07-20T03:56:16;14.60;99.90
61912;DHT22;49973;52.084;5.412;2023-07-20T03:58:44;14.60;99.90
61912;DHT22;49973;52.084;5.412;2023-07-20T04:01:13;14.60;99.90
61912;DHT22;49973;52.084;5.412;2023-07-20T04:03:45;14.50;99.90
61912;DHT22;49973;52.084;5.412;2023-07-20T04:06:16;14.60;99.90
61912;DHT22;49973;52.084;5.412;2023-07-20T04:08:45;14.60;99.90
61912;DHT22;49973;52.084;5.412;2023-07-20T04:11:14;14.50;99.90
61912;DHT22;49973;52.084;5.412;2023-07-20T04:13:43;14.60;99.90
61912;DHT22;49973;52.084;5.412;2023-07-20T04:16:12;14.60;99.90
61912;DHT22;49973;52.084;5.412;2023-07-20T04:18:40;14.60;99.90
61912;DHT22;49973;52.084;5.412;2023-07-20T04:21:10;14.60;99.90
61912;DHT22;49973;52.084;5.412;2023-07-20T04:23:39;14.60;99.90
61912;DHT22;49973;52.084;5.412;2023-07-20T04:26:07;14.70;99.90
61912;DHT22;49973;52.084;5.412;2023-07-20T04:28:36;14.80;99.90
61912;DHT22;49973;52.084;5.412;2023-07-20T04:31:11;14.80;99.90
61912;DHT22;49973;52.084;5.412;2023-07-20T04:33:42;14.70;99.90
61912;DHT22;49973;52.084;5.412;2023-07-20T04:36:12;15.00;99.90
61912;DHT22;49973;52.084;5.412;2023-07-20T04:38:43;14.80;99.90
61912;DHT22;49973;52.084;5.412;2023-07-20T04:41:18;14.70;99.90
61912;DHT22;49973;52.084;5.412;2023-07-20T04:43:50;14.90;99.90
61912;DHT22;49973;52.084;5.412;2023-07-20T04:46:25;15.00;99.90
61912;DHT22;49973;52.084;5.412;2023-07-20T04:48:55;14.90;99.90
61912;DHT22;49973;52.084;5.412;2023-07-20T04:51:26;15.00;99.90
61912;DHT22;49973;52.084;5.412;2023-07-20T04:53:57;15.10;99.90
61912;DHT22;49973;52.084;5.412;2023-07-20T04:56:29;15.10;99.90
61912;DHT22;49973;52.084;5.412;2023-07-20T04:58:58;15.10;99.90
61912;DHT22;49973;52.084;5.412;2023-07-20T05:01:26;15.20;99.90
61912;DHT22;49973;52.084;5.412;2023-07-20T05:03:55;15.20;99.90
61912;DHT22;49973;52.084;5.412;2023-07-20T05:06:26;15.20;99.90
61912;DHT22;49973;52.084;5.412;2023-07-20T05:08:55;15.30;99.90
61912;DHT22;49973;52.084;5.412;2023-07-20T05:11:24;15.40;99.90
61912;DHT22;49973;52.084;5.412;2023-07-20T05:13:52;15.50;99.90
61912;DHT22;49973;52.084;5.412;2023-07-20T05:16:21;15.60;99.90
61912;DHT22;49973;52.084;5.412;2023-07-20T05:18:50;15.80;99.90
61912;DHT22;49973;52.084;5.412;2023-07-20T05:21:20;15.80;99.90
61912;DHT22;49973;52.084;5.412;2023-07-20T05:23:50;16.10;99.90
61912;DHT22;49973;52.084;5.412;2023-07-20T05:26:18;16.00;99.90
61912;DHT22;49973;52.084;5.412;2023-07-20T05:28:47;16.10;99.90
61912;DHT22;49973;52.084;5.412;2023-07-20T05:31:16;16.20;99.90
61912;DHT22;49973;52.084;5.412;2023-07-20T05:33:45;16.30;99.90
61912;DHT22;49973;52.084;5.412;2023-07-20T05:36:13;16.30;99.90
61912;DHT22;49973;52.084;5.412;2023-07-20T05:38:42;16.40;99.90
61912;DHT22;49973;52.084;5.412;2023-07-20T05:41:12;16.50;99.90
61912;DHT22;49973;52.084;5.412;2023-07-20T05:43:41;16.60;99.90
61912;DHT22;49973;52.084;5.412;2023-07-20T05:46:09;16.70;99.90
61912;DHT22;49973;52.084;5.412;2023-07-20T05:48:38;16.80;99.90
61912;DHT22;49973;52.084;5.412;2023-07-20T05:51:07;16.90;99.90
61912;DHT22;49973;52.084;5.412;2023-07-20T05:53:35;17.00;99.90
61912;DHT22;49973;52.084;5.412;2023-07-20T05:56:05;17.10;99.90
61912;DHT22;49973;52.084;5.412;2023-07-20T05:58:38;17.10;99.90
61912;DHT22;49973;52.084;5.412;2023-07-20T06:01:07;17.20;99.90
61912;DHT22;49973;52.084;5.412;2023-07-20T06:03:35;17.30;99.90
61912;DHT22;49973;52.084;5.412;2023-07-20T06:06:05;17.40;99.90
61912;DHT22;49973;52.084;5.412;2023-07-20T06:08:33;17.60;99.90
61912;DHT22;49973;52.084;5.412;2023-07-20T06:11:02;17.70;99.90
61912;DHT22;49973;52.084;5.412;2023-07-20T06:13:31;18.00;99.90
61912;DHT22;49973;52.084;5.412;2023-07-20T06:16:01;18.50;99.90
61912;DHT22;49973;52.084;5.412;2023-07-20T06:18:30;19.10;99.90
61912;DHT22;49973;52.084;5.412;2023-07-20T06:20:59;19.80;99.90
61912;DHT22;49973;52.084;5.412;2023-07-20T06:23:27;20.40;99.90
61912;DHT22;49973;52.084;5.412;2023-07-20T06:25:56;21.00;99.90
61912;DHT22;49973;52.084;5.412;2023-07-20T06:28:25;21.50;99.90
61912;DHT22;49973;52.084;5.412;2023-07-20T06:31:00;21.80;99.90
61912;DHT22;49973;52.084;5.412;2023-07-20T06:33:29;21.80;99.90
61912;DHT22;49973;52.084;5.412;2023-07-20T06:35:58;21.60;99.90
61912;DHT22;49973;52.084;5.412;2023-07-20T06:38:27;21.40;99.90
61912;DHT22;49973;52.084;5.412;2023-07-20T06:40:58;21.20;99.90
61912;DHT22;49973;52.084;5.412;2023-07-20T06:43:30;20.90;99.90
61912;DHT22;49973;52.084;5.412;2023-07-20T06:46:03;20.80;99.90
61912;DHT22;49973;52.084;5.412;2023-07-20T06:48:32;20.70;99.90
61912;DHT22;49973;52.084;5.412;2023-07-20T06:51:20;20.60;99.90
61912;DHT22;49973;52.084;5.412;2023-07-20T06:53:49;20.50;99.90
61912;DHT22;49973;52.084;5.412;2023-07-20T06:56:18;20.30;99.90
61912;DHT22;49973;52.084;5.412;2023-07-20T06:58:51;20.10;99.90
61912;DHT22;49973;52.084;5.412;2023-07-20T07:01:21;20.00;99.90
61912;DHT22;49973;52.084;5.412;2023-07-20T07:03:50;19.90;99.90
61912;DHT22;49973;52.084;5.412;2023-07-20T07:06:22;19.90;99.90
61912;DHT22;49973;52.084;5.412;2023-07-20T07:08:52;20.00;99.90
61912;DHT22;49973;52.084;5.412;2023-07-20T07:11:21;20.20;99.90
61912;DHT22;49973;52.084;5.412;2023-07-20T07:13:51;20.40;99.90
61912;DHT22;49973;52.084;5.412;2023-07-20T07:16:24;20.60;99.90
61912;DHT22;49973;52.084;5.412;2023-07-20T07:18:53;20.80;99.90
61912;DHT22;49973;52.084;5.412;2023-07-20T07:21:26;21.00;99.90
61912;DHT22;49973;52.084;5.412;2023-07-20T07:23:55;21.10;99.90
61912;DHT22;49973;52.084;5.412;2023-07-20T07:26:25;21.20;99.90
61912;DHT22;49973;52.084;5.412;2023-07-20T07:28:53;21.40;99.90
61912;DHT22;49973;52.084;5.412;2023-07-20T07:31:25;21.60;99.90
61912;DHT22;49973;52.084;5.412;2023-07-20T07:33:53;21.60;99.90
61912;DHT22;49973;52.084;5.412;2023-07-20T07:36:22;21.50;99.90
61912;DHT22;49973;52.084;5.412;2023-07-20T07:38:51;21.50;99.90
61912;DHT22;49973;52.084;5.412;2023-07-20T07:41:23;21.50;99.90
61912;DHT22;49973;52.084;5.412;2023-07-20T07:43:51;21.50;99.90
61912;DHT22;49973;52.084;5.412;2023-07-20T07:46:20;21.30;99.90
61912;DHT22;49973;52.084;5.412;2023-07-20T07:48:50;21.10;99.90
61912;DHT22;49973;52.084;5.412;2023-07-20T07:51:19;20.90;99.90
61912;DHT22;49973;52.084;5.412;2023-07-20T07:53:48;20.70;99.90
61912;DHT22;49973;52.084;5.412;2023-07-20T07:56:17;20.60;99.90
61912;DHT22;49973;52.084;5.412;2023-07-20T07:58:51;20.50;99.90
61912;DHT22;49973;52.084;5.412;2023-07-20T08:01:19;20.40;99.90
61912;DHT22;49973;52.084;5.412;2023-07-20T08:03:50;20.50;99.90
61912;DHT22;49973;52.084;5.412;2023-07-20T08:06:19;20.60;99.90
61912;DHT22;49973;52.084;5.412;2023-07-20T08:08:48;20.80;99.90
61912;DHT22;49973;52.084;5.412;2023-07-20T08:11:16;21.10;99.90
61912;DHT22;49973;52.084;5.412;2023-07-20T08:13:46;21.30;99.90
61912;DHT22;49973;52.084;5.412;2023-07-20T08:16:14;21.50;99.90
61912;DHT22;49973;52.084;5.412;2023-07-20T08:18:43;21.80;99.90
61912;DHT22;49973;52.084;5.412;2023-07-20T08:21:14;22.00;99.90
61912;DHT22;49973;52.084;5.412;2023-07-20T08:23:43;22.20;99.90
61912;DHT22;49973;52.084;5.412;2023-07-20T08:26:12;22.40;99.90
61912;DHT22;49973;52.084;5.412;2023-07-20T08:28:42;22.50;99.90
61912;DHT22;49973;52.084;5.412;2023-07-20T08:31:10;22.60;99.90
61912;DHT22;49973;52.084;5.412;2023-07-20T08:33:39;22.70;99.90
61912;DHT22;49973;52.084;5.412;2023-07-20T08:36:08;22.80;99.90
61912;DHT22;49973;52.084;5.412;2023-07-20T08:38:39;22.90;99.90
61912;DHT22;49973;52.084;5.412;2023-07-20T08:41:09;23.00;99.90
61912;DHT22;49973;52.084;5.412;2023-07-20T08:43:38;23.10;99.90
61912;DHT22;49973;52.084;5.412;2023-07-20T08:46:11;23.20;99.90
61912;DHT22;49973;52.084;5.412;2023-07-20T08:48:43;23.30;99.90
61912;DHT22;49973;52.084;5.412;2023-07-20T08:51:13;23.40;99.90
61912;DHT22;49973;52.084;5.412;2023-07-20T08:53:44;23.40;99.90
61912;DHT22;49973;52.084;5.412;2023-07-20T08:56:14;23.40;99.90
61912;DHT22;49973;52.084;5.412;2023-07-20T08:58:43;23.20;99.90
61912;DHT22;49973;52.084;5.412;2023-07-20T09:01:13;22.90;99.90
61912;DHT22;49973;52.084;5.412;2023-07-20T09:03:44;22.60;99.90
61912;DHT22;49973;52.084;5.412;2023-07-20T09:06:13;22.40;99.90
61912;DHT22;49973;52.084;5.412;2023-07-20T09:08:44;22.40;99.90
61912;DHT22;49973;52.084;5.412;2023-07-20T09:11:13;22.60;99.90
61912;DHT22;49973;52.084;5.412;2023-07-20T09:13:42;22.80;99.90
61912;DHT22;49973;52.084;5.412;2023-07-20T09:16:13;23.10;99.90
61912;DHT22;49973;52.084;5.412;2023-07-20T09:18:42;23.30;99.90
61912;DHT22;49973;52.084;5.412;2023-07-20T09:21:11;23.60;99.90
61912;DHT22;49973;52.084;5.412;2023-07-20T09:23:40;23.80;99.90
61912;DHT22;49973;52.084;5.412;2023-07-20T09:26:14;24.00;99.90
61912;DHT22;49973;52.084;5.412;2023-07-20T09:28:48;24.30;99.90
61912;DHT22;49973;52.084;5.412;2023-07-20T09:31:19;24.30;99.90
61912;DHT22;49973;52.084;5.412;2023-07-20T09:33:48;24.30;99.90
61912;DHT22;49973;52.084;5.412;2023-07-20T09:36:20;24.10;99.90
61912;DHT22;49973;52.084;5.412;2023-07-20T09:39:09;23.90;99.90
61912;DHT22;49973;52.084;5.412;2023-07-20T09:41:42;23.60;99.90
61912;DHT22;49973;52.084;5.412;2023-07-20T09:44:14;23.50;99.90
61912;DHT22;49973;52.084;5.412;2023-07-20T09:46:47;23.60;99.90
61912;DHT22;49973;52.084;5.412;2023-07-20T09:49:19;23.90;99.90
61912;DHT22;49973;52.084;5.412;2023-07-20T09:51:53;24.20;99.90
61912;DHT22;49973;52.084;5.412;2023-07-20T09:54:22;24.50;99.90
61912;DHT22;49973;52.084;5.412;2023-07-20T09:56:52;24.90;99.90
61912;DHT22;49973;52.084;5.412;2023-07-20T09:59:22;25.20;99.90
61912;DHT22;49973;52.084;5.412;2023-07-20T10:01:53;25.50;99.90
61912;DHT22;49973;52.084;5.412;2023-07-20T10:04:28;25.70;99.90
61912;DHT22;49973;52.084;5.412;2023-07-20T10:06:59;25.90;99.90
61912;DHT22;49973;52.084;5.412;2023-07-20T10:09:30;26.10;99.90
61912;DHT22;49973;52.084;5.412;2023-07-20T10:12:01;26.20;99.90
61912;DHT22;49973;52.084;5.412;2023-07-20T10:14:49;26.40;99.90
61912;DHT22;49973;52.084;5.412;2023-07-20T10:17:21;26.50;99.90
61912;DHT22;49973;52.084;5.412;2023-07-20T10:19:52;26.70;99.90
61912;DHT22;49973;52.084;5.412;2023-07-20T10:22:25;27.00;99.90
61912;DHT22;49973;52.084;5.412;2023-07-20T10:24:55;27.20;99.90
61912;DHT22;49973;52.084;5.412;2023-07-20T10:27:27;27.30;99.90
61912;DHT22;49973;52.084;5.412;2023-07-20T10:29:57;27.10;99.90
61912;DHT22;49973;52.084;5.412;2023-07-20T10:32:26;26.80;99.90
61912;DHT22;49973;52.084;5.412;2023-07-20T10:34:56;26.30;99.90
61912;DHT22;49973;52.084;5.412;2023-07-20T10:37:52;25.80;99.90
61912;DHT22;49973;52.084;5.412;2023-07-20T10:40:26;25.60;99.90
61912;DHT22;49973;52.084;5.412;2023-07-20T10:43:04;25.80;99.90
61912;DHT22;49973;52.084;5.412;2023-07-20T10:45:35;26.00;99.90
61912;DHT22;49973;52.084;5.412;2023-07-20T10:48:04;26.10;99.90
61912;DHT22;49973;52.084;5.412;2023-07-20T10:50:34;26.40;99.90
61912;DHT22;49973;52.084;5.412;2023-07-20T10:53:10;26.70;99.90
61912;DHT22;49973;52.084;5.412;2023-07-20T10:55:40;26.90;99.90
61912;DHT22;49973;52.084;5.412;2023-07-20T10:58:12;27.00;99.90
61912;DHT22;49973;52.084;5.412;2023-07-20T11:00:57;27.20;99.90
61912;DHT22;49973;52.084;5.412;2023-07-20T11:03:27;27.20;99.90
61912;DHT22;49973;52.084;5.412;2023-07-20T11:09:11;27.30;99.90
61912;DHT22;49973;52.084;5.412;2023-07-20T11:11:42;27.30;99.90
61912;DHT22;49973;52.084;5.412;2023-07-20T11:14:20;27.00;99.90
61912;DHT22;49973;52.084;5.412;2023-07-20T11:16:50;26.80;99.90
61912;DHT22;49973;52.084;5.412;2023-07-20T11:19:20;26.80;99.90
61912;DHT22;49973;52.084;5.412;2023-07-20T11:21:55;27.00;99.90
61912;DHT22;49973;52.084;5.412;2023-07-20T11:24:31;27.20;99.90
61912;DHT22;49973;52.084;5.412;2023-07-20T11:27:00;27.40;99.90
61912;DHT22;49973;52.084;5.412;2023-07-20T11:29:31;27.50;99.90
61912;DHT22;49973;52.084;5.412;2023-07-20T11:32:01;27.30;99.90
61912;DHT22;49973;52.084;5.412;2023-07-20T11:34:33;27.00;99.90
61912;DHT22;49973;52.084;5.412;2023-07-20T11:37:02;26.60;99.90
61912;DHT22;49973;52.084;5.412;2023-07-20T11:39:34;26.30;99.90
61912;DHT22;49973;52.084;5.412;2023-07-20T11:42:04;26.00;99.90
61912;DHT22;49973;52.084;5.412;2023-07-20T11:44:34;25.80;99.90
61912;DHT22;49973;52.084;5.412;2023-07-20T11:47:04;25.50;99.90
61912;DHT22;49973;52.084;5.412;2023-07-20T11:49:37;25.40;99.90
61912;DHT22;49973;52.084;5.412;2023-07-20T11:52:07;25.40;99.90
61912;DHT22;49973;52.084;5.412;2023-07-20T11:54:38;25.40;99.90
61912;DHT22;49973;52.084;5.412;2023-07-20T11:57:16;25.30;99.90
61912;DHT22;49973;52.084;5.412;2023-07-20T11:59:54;25.20;99.90
61912;DHT22;49973;52.084;5.412;2023-07-20T12:02:27;25.20;99.90
61912;DHT22;49973;52.084;5.412;2023-07-20T12:04:56;25.10;99.90
61912;DHT22;49973;52.084;5.412;2023-07-20T12:07:27;24.90;99.90
61912;DHT22;49973;52.084;5.412;2023-07-20T12:10:03;24.80;99.90
61912;DHT22;49973;52.084;5.412;2023-07-20T12:12:32;24.60;99.90
61912;DHT22;49973;52.084;5.412;2023-07-20T12:15:16;24.60;99.90
61912;DHT22;49973;52.084;5.412;2023-07-20T12:17:45;24.70;99.90
61912;DHT22;49973;52.084;5.412;2023-07-20T12:20:24;24.90;99.90
61912;DHT22;49973;52.084;5.412;2023-07-20T12:22:56;25.20;99.90
61912;DHT22;49973;52.084;5.412;2023-07-20T12:25:33;25.50;99.90
61912;DHT22;49973;52.084;5.412;2023-07-20T12:28:02;25.70;99.90
61912;DHT22;49973;52.084;5.412;2023-07-20T12:30:34;25.80;99.90
61912;DHT22;49973;52.084;5.412;2023-07-20T12:33:03;25.60;99.90
61912;DHT22;49973;52.084;5.412;2023-07-20T12:35:33;25.40;99.90
61912;DHT22;49973;52.084;5.412;2023-07-20T12:38:01;25.30;99.90
61912;DHT22;49973;52.084;5.412;2023-07-20T12:40:30;25.20;99.90
61912;DHT22;49973;52.084;5.412;2023-07-20T12:42:59;25.30;99.90
61912;DHT22;49973;52.084;5.412;2023-07-20T12:45:27;25.40;99.90
61912;DHT22;49973;52.084;5.412;2023-07-20T12:47:57;25.50;99.90
61912;DHT22;49973;52.084;5.412;2023-07-20T12:50:27;25.50;99.90
61912;DHT22;49973;52.084;5.412;2023-07-20T12:52:55;25.40;99.90
61912;DHT22;49973;52.084;5.412;2023-07-20T12:55:24;25.20;99.90
61912;DHT22;49973;52.084;5.412;2023-07-20T12:57:52;25.00;99.90
61912;DHT22;49973;52.084;5.412;2023-07-20T13:00:21;24.80;99.90
61912;DHT22;49973;52.084;5.412;2023-07-20T13:02:50;24.60;99.90
61912;DHT22;49973;52.084;5.412;2023-07-20T13:05:37;24.40;99.90
61912;DHT22;49973;52.084;5.412;2023-07-20T13:08:08;24.20;99.90
61912;DHT22;49973;52.084;5.412;2023-07-20T13:10:40;24.00;99.90
61912;DHT22;49973;52.084;5.412;2023-07-20T13:13:09;23.80;99.90
61912;DHT22;49973;52.084;5.412;2023-07-20T13:15:42;23.70;99.90
61912;DHT22;49973;52.084;5.412;2023-07-20T13:18:11;23.50;99.90
61912;DHT22;49973;52.084;5.412;2023-07-20T13:20:41;23.50;99.90
61912;DHT22;49973;52.084;5.412;2023-07-20T13:23:10;23.40;99.90
61912;DHT22;49973;52.084;5.412;2023-07-20T13:25:38;23.30;99.90
61912;DHT22;49973;52.084;5.412;2023-07-20T13:28:07;23.20;99.90
61912;DHT22;49973;52.084;5.412;2023-07-20T13:30:36;23.10;99.90
61912;DHT22;49973;52.084;5.412;2023-07-20T13:33:07;23.10;99.90
61912;DHT22;49973;52.084;5.412;2023-07-20T13:35:41;23.10;99.90
61912;DHT22;49973;52.084;5.412;2023-07-20T13:38:12;23.20;99.90
61912;DHT22;49973;52.084;5.412;2023-07-20T13:40:41;23.30;99.90
61912;DHT22;49973;52.084;5.412;2023-07-20T13:43:10;23.40;99.90
61912;DHT22;49973;52.084;5.412;2023-07-20T13:45:39;23.50;99.90
61912;DHT22;49973;52.084;5.412;2023-07-20T13:48:08;23.50;99.90
61912;DHT22;49973;52.084;5.412;2023-07-20T13:50:36;23.60;99.90
61912;DHT22;49973;52.084;5.412;2023-07-20T13:53:09;23.70;99.90
61912;DHT22;49973;52.084;5.412;2023-07-20T13:55:42;23.80;99.90
61912;DHT22;49973;52.084;5.412;2023-07-20T13:58:13;24.00;99.90
61912;DHT22;49973;52.084;5.412;2023-07-20T14:00:42;24.10;99.90
61912;DHT22;49973;52.084;5.412;2023-07-20T14:03:10;24.20;99.90
61912;DHT22;49973;52.084;5.412;2023-07-20T14:05:42;24.30;99.90
61912;DHT22;49973;52.084;5.412;2023-07-20T14:08:16;24.30;99.90
61912;DHT22;49973;52.084;5.412;2023-07-20T14:10:45;24.40;99.90
61912;DHT22;49973;52.084;5.412;2023-07-20T14:13:16;24.40;99.90
61912;DHT22;49973;52.084;5.412;2023-07-20T14:15:45;24.30;99.90
61912;DHT22;49973;52.084;5.412;2023-07-20T14:18:13;24.30;99.90
61912;DHT22;49973;52.084;5.412;2023-07-20T14:20:46;24.20;99.90
61912;DHT22;49973;52.084;5.412;2023-07-20T14:23:16;24.10;99.90
61912;DHT22;49973;52.084;5.412;2023-07-20T14:25:44;24.10;99.90
61912;DHT22;49973;52.084;5.412;2023-07-20T14:28:15;24.00;99.90
61912;DHT22;49973;52.084;5.412;2023-07-20T14:30:44;24.00;99.90
61912;DHT22;49973;52.084;5.412;2023-07-20T14:33:12;24.00;99.90
61912;DHT22;49973;52.084;5.412;2023-07-20T14:35:41;24.00;99.90
61912;DHT22;49973;52.084;5.412;2023-07-20T14:38:10;24.00;99.90
61912;DHT22;49973;52.084;5.412;2023-07-20T14:40:40;24.00;99.90
61912;DHT22;49973;52.084;5.412;2023-07-20T14:43:09;24.10;99.90
61912;DHT22;49973;52.084;5.412;2023-07-20T14:45:37;24.10;99.90
61912;DHT22;49973;52.084;5.412;2023-07-20T14:48:06;24.20;99.90
61912;DHT22;49973;52.084;5.412;2023-07-20T14:50:35;24.30;99.90
61912;DHT22;49973;52.084;5.412;2023-07-20T14:53:03;24.30;99.90
61912;DHT22;49973;52.084;5.412;2023-07-20T14:55:33;24.20;99.90
61912;DHT22;49973;52.084;5.412;2023-07-20T14:58:03;24.10;99.90
61912;DHT22;49973;52.084;5.412;2023-07-20T15:00:31;24.10;99.90
61912;DHT22;49973;52.084;5.412;2023-07-20T15:03:00;24.10;99.90
61912;DHT22;49973;52.084;5.412;2023-07-20T15:05:29;24.10;99.90
61912;DHT22;49973;52.084;5.412;2023-07-20T15:07:58;24.00;99.90
61912;DHT22;49973;52.084;5.412;2023-07-20T15:10:26;23.90;99.90
61912;DHT22;49973;52.084;5.412;2023-07-20T15:12:55;23.90;99.90
61912;DHT22;49973;52.084;5.412;2023-07-20T15:15:25;23.80;99.90
61912;DHT22;49973;52.084;5.412;2023-07-20T15:17:54;23.70;99.90
61912;DHT22;49973;52.084;5.412;2023-07-20T15:20:22;23.70;99.90
61912;DHT22;49973;52.084;5.412;2023-07-20T15:22:51;23.80;99.90
61912;DHT22;49973;52.084;5.412;2023-07-20T15:25:20;23.80;99.90
61912;DHT22;49973;52.084;5.412;2023-07-20T15:27:49;23.70;99.90
61912;DHT22;49973;52.084;5.412;2023-07-20T15:30:20;23.70;99.90
61912;DHT22;49973;52.084;5.412;2023-07-20T15:32:53;23.70;99.90
61912;DHT22;49973;52.084;5.412;2023-07-20T15:35:25;23.60;99.90
61912;DHT22;49973;52.084;5.412;2023-07-20T15:37:54;23.50;99.90
61912;DHT22;49973;52.084;5.412;2023-07-20T15:40:23;23.50;99.90
61912;DHT22;49973;52.084;5.412;2023-07-20T15:42:52;23.50;99.90
61912;DHT22;49973;52.084;5.412;2023-07-20T15:45:21;23.40;99.90
61912;DHT22;49973;52.084;5.412;2023-07-20T15:47:49;23.30;99.90
61912;DHT22;49973;52.084;5.412;2023-07-20T15:50:20;23.30;99.90
61912;DHT22;49973;52.084;5.412;2023-07-20T15:52:49;23.20;99.90